Latest Weather Observations for Creal Reef

IDQ60801

Issued at 10:02 pm EST Wednesday 7 December 2016 (issued every 30 minutes, with the page automatically refreshed every 10 minutes)

About weather observations | Map of weather stations | Latest weather observations for QLD | Other Formats
Station Details ID: 200736 Name: CREAL REEF Lat: -20.53 Lon: 150.38 Height: 1.7 m
Data from the previous 72 hours. | See also: Recent months for locations in Queensland
Date/Time
EST
Temp
°C
App
Temp
°C
Dew
Point
°C
Rel
Hum
%
Delta-T
°C
Wind Press
QNH
hPa
Press
MSL
hPa
Rain since
9am
mm
Dir  Spd
km/h
Gust
km/h
Spd
kts
Gust
kts
07/10:00pm 26.5 - - - - ENE 20 24 11 13 1012.8 - -
07/09:30pm 26.3 - - - - E 22 26 12 14 1012.5 - -
07/09:20pm 26.3 - - - - ENE 22 - 12 - - 1012.3 -
07/09:00pm 26.4 - - - - ENE 24 26 13 14 1012.3 - -
07/08:30pm 26.5 - - - - ENE 22 26 12 14 1012.0 - -
07/08:20pm 26.3 - - - - E 24 - 13 - - 1011.8 -
07/08:00pm 26.5 - - - - E 24 28 13 15 1011.7 - -
07/07:30pm 26.5 - - - - E 24 28 13 15 1011.5 - -
07/07:20pm 26.5 - - - - ENE 24 - 13 - - 1011.5 -
07/07:00pm 26.6 - - - - E 26 28 14 15 1011.7 - -
07/06:30pm 26.5 - - - - E 24 28 13 15 1011.8 - -
07/06:20pm 26.4 - - - - ENE 24 - 13 - - 1011.6 -
07/06:00pm 26.3 - - - - E 24 28 13 15 1011.7 - -
07/05:30pm 26.4 - - - - E 22 26 12 14 1011.6 - -
07/05:20pm 26.4 - - - - E 22 - 12 - - 1011.5 -
07/05:00pm 26.5 - - - - E 20 22 11 12 1011.4 - -
07/04:30pm 26.6 - - - - E 20 24 11 13 1011.4 - -
07/04:20pm 26.7 - - - - E 20 - 11 - - 1011.4 -
07/04:00pm 26.7 - - - - ESE 20 24 11 13 1011.5 - -
07/03:30pm 26.6 - - - - E 20 24 11 13 1011.7 - -
07/03:20pm 26.8 - - - - ESE 20 - 11 - - 1011.7 -
07/03:00pm 26.6 - - - - ESE 20 24 11 13 1011.9 - -
07/02:30pm 26.7 - - - - SE 20 24 11 13 1012.1 - -
07/02:20pm 26.7 - - - - SE 22 - 12 - - 1012.1 -
07/02:00pm 26.7 - - - - SE 20 22 11 12 1012.2 - -
07/01:30pm 26.8 - - - - ESE 19 22 10 12 1012.5 - -
07/01:20pm 26.6 - - - - ESE 20 - 11 - - 1012.5 -
07/01:00pm 26.6 - - - - ESE 20 24 11 13 1012.6 - -
07/12:30pm 26.6 - - - - ESE 20 24 11 13 1012.7 - -
07/12:20pm 26.6 - - - - SE 20 - 11 - - 1012.7 -
07/12:00pm 26.7 - - - - SE 22 24 12 13 1012.9 - -
07/11:30am 26.7 - - - - SE 19 22 10 12 1013.2 - -
07/11:20am 26.7 - - - - SE 19 - 10 - - 1013.2 -
07/11:00am 26.8 - - - - SE 19 20 10 11 1013.4 - -
07/10:30am 26.8 - - - - SE 17 20 9 11 1013.7 - -
07/10:20am 26.9 - - - - SE 17 - 9 - - 1013.7 -
07/10:00am 26.8 - - - - ESE 15 17 8 9 1013.7 - -
07/09:30am 26.8 - - - - ESE 17 19 9 10 1013.6 - -
07/09:20am 26.9 - - - - E 15 - 8 - - 1013.5 -
07/09:00am 27.0 - - - - E 17 19 9 10 1013.2 - -
07/08:30am 26.7 - - - - E 15 17 8 9 1013.0 - -
07/08:20am 26.6 - - - - E 9 - 5 - - 1012.9 -
07/08:00am 26.6 - - - - E 13 17 7 9 1012.8 - -
07/07:30am 26.4 - - - - NE 11 13 6 7 1012.7 - -
07/07:20am 26.3 - - - - ENE 11 - 6 - - 1012.6 -
07/07:00am 26.2 - - - - ENE 15 19 8 10 1012.5 - -
07/06:30am 26.4 - - - - ENE 15 19 8 10 1012.1 - -
07/06:20am 26.3 - - - - ENE 15 - 8 - - 1011.9 -
07/06:00am 26.1 - - - - ENE 19 24 10 13 1011.9 - -
07/05:30am 25.8 - - - - ENE 20 22 11 12 1011.5 - -
07/05:20am 25.9 - - - - ENE 22 - 12 - - 1011.3 -
07/05:00am 26.0 - - - - ENE 20 24 11 13 1010.9 - -
07/04:30am 25.8 - - - - ENE 19 22 10 12 1010.6 - -
07/04:20am 25.9 - - - - E 19 - 10 - - 1010.5 -
07/04:00am 26.0 - - - - ENE 19 20 10 11 1010.7 - -
07/03:30am 25.8 - - - - ENE 13 15 7 8 1010.7 - -
07/03:20am 25.9 - - - - ENE 15 - 8 - - 1010.6 -
07/03:00am 26.0 - - - - ENE 13 17 7 9 1010.7 - -
07/02:30am 25.8 - - - - ENE 15 19 8 10 1010.8 - -
07/02:20am 26.0 - - - - ENE 15 - 8 - - 1010.7 -
07/02:00am 25.8 - - - - NE 15 17 8 9 1010.8 - -
07/01:30am 25.9 - - - - ENE 19 20 10 11 1011.1 - -
07/01:20am 26.0 - - - - NE 19 - 10 - - 1011.1 -
07/01:00am 26.1 - - - - NE 20 22 11 12 1011.3 - -
07/12:30am 26.0 - - - - ENE 17 20 9 11 1011.6 - -
07/12:20am 25.9 - - - - ENE 17 - 9 - - 1011.6 -
07/12:00am 26.0 - - - - ENE 17 20 9 11 1012.0 - -
 
Date/Time
EST
Temp
°C
App
Temp
°C
Dew
Point
°C
Rel
Hum
%
Delta-T
°C
Wind Press
QNH
hPa
Press
MSL
hPa
Rain since
9am
mm
Dir  Spd
km/h
Gust
km/h
Spd
kts
Gust
kts
06/11:30pm 26.0 - - - - E 19 22 10 12 1012.4 - -
06/11:20pm 26.2 - - - - ENE 20 - 11 - - 1012.3 -
06/11:00pm 26.0 - - - - E 22 28 12 15 1012.5 - -
06/10:30pm 26.1 - - - - E 24 30 13 16 1012.5 - -
06/10:20pm 26.1 - - - - E 22 - 12 - - 1012.4 -
06/10:00pm 26.1 - - - - E 28 32 15 17 1012.5 - -
06/09:30pm 26.2 - - - - E 28 35 15 19 1012.6 - -
06/09:20pm 26.1 - - - - ESE 28 - 15 - - 1012.4 -
06/09:00pm 26.0 - - - - ESE 26 30 14 16 1012.2 - -
06/08:30pm 25.9 - - - - E 26 32 14 17 1012.3 - -
06/08:20pm 25.9 - - - - ESE 28 - 15 - - 1012.3 -
06/08:00pm 26.0 - - - - ESE 26 30 14 16 1012.5 - -
06/07:30pm 26.2 - - - - ESE 28 32 15 17 1012.4 - -
06/07:20pm 26.1 - - - - ESE 26 - 14 - - 1012.3 -
06/07:00pm 26.2 - - - - ESE 28 33 15 18 1012.3 - -
06/06:30pm 26.2 - - - - ESE 28 32 15 17 1012.3 - -
06/06:20pm 26.2 - - - - ESE 26 - 14 - - 1012.2 -
06/06:00pm 26.2 - - - - ESE 24 28 13 15 1012.3 - -
06/05:30pm 26.2 - - - - ESE 24 28 13 15 1012.3 - -
06/05:20pm 26.2 - - - - ESE 26 - 14 - - 1012.2 -
06/05:00pm 26.3 - - - - ESE 28 32 15 17 1012.1 - -
06/04:30pm 26.4 - - - - SE 30 35 16 19 1012.3 - -
06/04:20pm 26.2 - - - - SE 30 - 16 - - 1012.2 -
06/04:00pm 26.3 - - - - ESE 26 30 14 16 1012.2 - -
06/03:30pm 26.3 - - - - ESE 24 28 13 15 1012.7 - -
06/03:20pm 26.2 - - - - ESE 24 - 13 - - 1012.6 -
06/03:00pm 26.4 - - - - ESE 26 32 14 17 1012.8 - -
06/02:30pm 26.3 - - - - ESE 28 32 15 17 1013.1 - -
06/02:20pm 26.4 - - - - ESE 28 - 15 - - 1013.1 -
06/02:00pm 26.5 - - - - ESE 24 30 13 16 1013.5 - -
06/01:30pm 26.4 - - - - ESE 24 30 13 16 1013.7 - -
06/01:20pm 26.3 - - - - ESE 24 - 13 - - 1013.7 -
06/01:00pm 26.4 - - - - ESE 22 30 12 16 1014.0 - -
06/12:30pm 26.4 - - - - ESE 20 24 11 13 1014.0 - -
06/12:20pm 26.3 - - - - SE 19 - 10 - - 1014.0 -
06/12:00pm 26.2 - - - - ESE 19 20 10 11 1014.2 - -
06/11:30am 26.3 - - - - ESE 17 20 9 11 1014.4 - -
06/11:20am 26.5 - - - - ESE 13 - 7 - - 1014.3 -
06/11:00am 26.5 - - - - E 15 19 8 10 1014.8 - -
06/10:30am 26.6 - - - - ESE 13 15 7 8 1015.1 - -
06/10:20am 26.6 - - - - E 13 - 7 - - 1015.2 -
06/10:00am 26.3 - - - - E 17 20 9 11 1015.4 - -
06/09:30am 26.2 - - - - E 20 26 11 14 1015.2 - -
06/09:20am 26.3 - - - - ENE 26 - 14 - - 1014.9 -
06/09:00am 26.1 - - - - ENE 24 28 13 15 1015.0 - -
06/08:30am 26.2 - - - - ENE 26 30 14 16 1014.9 - -
06/08:20am 26.2 - - - - ENE 26 - 14 - - 1014.7 -
06/08:00am 26.2 - - - - E 20 26 11 14 1014.8 - -
06/07:30am 26.3 - - - - E 17 20 9 11 1015.0 - -
06/07:20am 26.4 - - - - E 19 - 10 - - 1014.8 -
06/07:00am 26.3 - - - - E 22 24 12 13 1014.7 - -
06/06:30am 26.2 - - - - E 20 24 11 13 1014.5 - -
06/06:20am 26.0 - - - - E 20 - 11 - - 1014.3 -
06/06:00am 26.1 - - - - ENE 24 28 13 15 1014.0 - -
06/05:30am 26.0 - - - - ENE 22 26 12 14 1013.7 - -
06/05:20am 25.9 - - - - E 19 - 10 - - 1013.5 -
06/05:00am 25.8 - - - - E 20 24 11 13 1013.4 - -
06/04:30am 25.8 - - - - ENE 22 24 12 13 1013.0 - -
06/04:20am 25.9 - - - - ENE 22 - 12 - - 1012.8 -
06/04:00am 25.8 - - - - E 22 28 12 15 1012.7 - -
06/03:30am 25.9 - - - - E 22 26 12 14 1012.8 - -
06/03:20am 26.1 - - - - E 22 - 12 - - 1012.6 -
06/03:00am 25.9 - - - - E 20 24 11 13 1012.8 - -
06/02:30am 25.8 - - - - ENE 26 30 14 16 1012.4 - -
06/02:20am 25.7 - - - - E 26 - 14 - - 1012.3 -
06/02:00am 25.8 - - - - E 30 32 16 17 1012.5 - -
06/01:30am 25.9 - - - - ENE 32 37 17 20 1012.4 - -
06/01:20am 25.8 - - - - ENE 30 - 16 - - 1012.3 -
06/01:00am 26.1 - - - - E 30 35 16 19 1012.7 - -
06/12:30am 26.0 - - - - E 28 32 15 17 1013.1 - -
06/12:20am 25.9 - - - - E 28 - 15 - - 1013.0 -
06/12:00am 26.0 - - - - E 26 30 14 16 1013.4 - -
 
Date/Time
EST
Temp
°C
App
Temp
°C
Dew
Point
°C
Rel
Hum
%
Delta-T
°C
Wind Press
QNH
hPa
Press
MSL
hPa
Rain since
9am
mm
Dir  Spd
km/h
Gust
km/h
Spd
kts
Gust
kts
05/11:30pm 26.0 - - - - E 28 32 15 17 1013.5 - -
05/11:20pm 26.1 - - - - E 26 - 14 - - 1013.5 -
05/11:00pm 26.0 - - - - E 26 32 14 17 1013.8 - -
05/10:30pm 26.1 - - - - E 28 33 15 18 1014.0 - -
05/10:20pm 26.2 - - - - E 28 - 15 - - 1013.9 -
05/10:00pm 26.2 - - - - E 26 32 14 17 1014.1 - -
05/09:30pm 26.1 - - - - E 26 33 14 18 1014.0 - -
05/09:20pm 26.1 - - - - E 28 - 15 - - 1013.8 -
05/09:00pm 26.0 - - - - E 28 30 15 16 1013.9 - -
05/08:30pm 26.1 - - - - E 26 30 14 16 1013.8 - -
05/08:20pm 26.2 - - - - E 26 - 14 - - 1013.8 -
05/08:00pm 26.1 - - - - E 26 30 14 16 1013.6 - -
05/07:30pm 26.2 - - - - E 26 30 14 16 1013.4 - -
05/07:20pm 26.1 - - - - E 26 - 14 - - 1013.1 -
05/07:00pm 26.1 - - - - ESE 26 30 14 16 1013.2 - -
05/06:30pm 26.2 - - - - E 19 22 10 12 1013.3 - -
05/06:20pm 26.0 - - - - E 20 - 11 - - 1013.0 -
05/06:00pm 26.2 - - - - E 20 24 11 13 1013.1 - -
05/05:30pm 26.2 - - - - E 20 24 11 13 1012.9 - -
05/05:20pm 26.2 - - - - E 20 - 11 - - 1012.8 -
05/05:00pm 26.4 - - - - E 20 22 11 12 1012.8 - -
05/04:30pm 26.4 - - - - ESE 20 24 11 13 1012.7 - -
05/04:20pm 26.4 - - - - ESE 20 - 11 - - 1012.5 -
05/04:00pm 26.4 - - - - ESE 20 22 11 12 1012.5 - -
05/03:30pm 26.3 - - - - ESE 19 22 10 12 1012.5 - -
05/03:20pm 26.4 - - - - ESE 19 - 10 - - 1012.3 -
05/03:00pm 26.4 - - - - ESE 17 20 9 11 1012.7 - -
05/02:30pm 26.6 - - - - ESE 15 20 8 11 1013.0 - -
05/02:20pm 26.4 - - - - ESE 15 - 8 - - 1013.0 -
05/02:00pm 26.4 - - - - ESE 13 17 7 9 1013.2 - -
05/01:30pm 26.5 - - - - ESE 13 15 7 8 1013.5 - -
05/01:20pm 26.8 - - - - E 13 - 7 - - 1013.5 -
05/01:00pm 26.6 - - - - E 13 17 7 9 1013.7 - -
05/12:30pm 26.6 - - - - E 13 17 7 9 1014.0 - -
05/12:20pm 26.5 - - - - E 13 - 7 - - 1014.0 -
05/12:00pm 26.4 - - - - E 15 17 8 9 1014.4 - -
05/11:30am 26.5 - - - - E 15 19 8 10 1014.7 - -
05/11:20am 26.4 - - - - E 15 - 8 - - 1014.8 -
05/11:00am 26.5 - - - - E 17 20 9 11 1015.1 - -
05/10:30am 26.6 - - - - E 17 19 9 10 1015.3 - -
05/10:20am 26.7 - - - - E 15 - 8 - - 1015.2 -
05/10:00am 26.6 - - - - E 17 20 9 11 1015.4 - -
05/09:30am 26.5 - - - - E 20 22 11 12 1015.5 - -
05/09:20am 26.4 - - - - E 19 - 10 - - 1015.5 -
05/09:00am 26.3 - - - - E 15 20 8 11 1015.6 - -
05/08:30am 26.4 - - - - ENE 19 22 10 12 1015.6 - -
05/08:20am 26.4 - - - - E 20 - 11 - - 1015.6 -
05/08:00am 26.2 - - - - ENE 20 22 11 12 1015.7 - -
05/07:30am 26.1 - - - - ENE 20 26 11 14 1015.3 - -
05/07:20am 26.2 - - - - ENE 22 - 12 - - 1015.3 -
05/07:00am 26.1 - - - - ENE 20 26 11 14 1015.3 - -
05/06:30am 26.2 - - - - ENE 22 26 12 14 1014.9 - -
05/06:20am 26.2 - - - - ENE 22 - 12 - - 1014.6 -
05/06:00am 26.0 - - - - ENE 26 30 14 16 1014.5 - -
05/05:30am 25.8 - - - - ENE 24 28 13 15 1014.2 - -
05/05:20am 26.0 - - - - ENE 26 - 14 - - 1013.9 -
05/05:00am 25.8 - - - - ENE 28 32 15 17 1013.6 - -
05/04:30am 25.8 - - - - E 26 32 14 17 1013.3 - -
05/04:20am 25.8 - - - - E 28 - 15 - - 1013.1 -
05/04:00am 25.7 - - - - E 24 28 13 15 1013.1 - -
05/03:30am 25.7 - - - - E 24 30 13 16 1013.1 - -
05/03:20am 25.8 - - - - E 24 - 13 - - 1013.0 -
05/03:00am 25.8 - - - - E 24 26 13 14 1013.0 - -
05/02:30am 25.7 - - - - ENE 24 30 13 16 1013.1 - -
05/02:20am 25.7 - - - - ENE 24 - 13 - - 1013.1 -
05/02:00am 25.7 - - - - E 24 28 13 15 1013.3 - -
05/01:30am 25.9 - - - - E 22 24 12 13 1013.6 - -
05/01:20am 25.7 - - - - E 20 - 11 - - 1013.6 -
05/01:00am 25.8 - - - - E 20 24 11 13 1013.9 - -
05/12:30am 25.9 - - - - E 19 22 10 12 1014.2 - -
05/12:20am 26.0 - - - - ESE 19 - 10 - - 1014.1 -
05/12:00am 25.8 - - - - E 20 24 11 13 1014.3 - -
 
Date/Time
EST
Temp
°C
App
Temp
°C
Dew
Point
°C
Rel
Hum
%
Delta-T
°C
Wind Press
QNH
hPa
Press
MSL
hPa
Rain since
9am
mm
Dir  Spd
km/h
Gust
km/h
Spd
kts
Gust
kts
04/11:30pm 25.9 - - - - E 20 24 11 13 1014.2 - -
04/11:20pm 25.9 - - - - E 20 - 11 - - 1014.1 -
04/11:00pm 26.0 - - - - E 20 24 11 13 1014.3 - -
04/10:30pm 26.1 - - - - E 20 24 11 13 1014.3 - -
04/10:20pm 25.8 - - - - E 20 - 11 - - 1014.3 -

Other Formats:

Comma delimited format used in spreadsheet applications
http://www.bom.gov.au/fwo/IDQ60801/IDQ60801.94371.axf

JavaScript Object Notation format (JSON) in row-major order
http://www.bom.gov.au/fwo/IDQ60801/IDQ60801.94371.json